Terminal Aerodrome Forecast
Issued by NWS Twin Cities, MN

Home | Current Version | Previous Version | Graphics & Text | Print | Product List | Glossary On
Versions: 1 2 3 4 5 6 7 8 9 10 11 12 13 14 15 16 17 18 19 20 21
000
FTUS43 KMPX 312300 RRA
TAFEAU
TAF
KEAU 312340Z 0100/0124 17011G18KT P6SM SCT050 BKN090
     FM010300 18010KT P6SM VCTS SCT025CB BKN050
      TEMPO 0103/0107 3SM TSRA OVC025CB
     FM010800 19007KT 6SM -SHRA SCT020 BKN050
     FM011000 24005KT 2SM -RA BR OVC012
     FM011500 28009KT 6SM BR BKN020
     FM011800 29011KT P6SM BKN040=

USA.gov is the U.S. government's official web portal to all federal, state and local government web resources and services.